createdAt,value
2022-08-01T00:01:58.533Z,11.17
2022-08-01T00:04:25.423Z,4.70
2022-08-01T00:06:52.210Z,3.97
2022-08-01T00:09:24.211Z,4.43
2022-08-01T00:11:59.720Z,2.80
2022-08-01T00:14:32.604Z,3.50
2022-08-01T00:17:06.868Z,2.83
2022-08-01T00:19:34.453Z,3.40
2022-08-01T00:22:01.277Z,3.73
2022-08-01T00:24:28.753Z,4.07
2022-08-01T00:26:55.567Z,4.93
2022-08-01T00:30:10.445Z,4.30
2022-08-01T00:32:10.563Z,3.67
2022-08-01T00:34:37.354Z,3.33
2022-08-01T00:37:04.087Z,3.17
2022-08-01T00:39:31.081Z,4.07
2022-08-01T00:41:59.796Z,2.73
2022-08-01T00:44:27.246Z,3.37
2022-08-01T00:46:54.037Z,2.97
2022-08-01T00:49:22.249Z,4.83
2022-08-01T00:51:49.481Z,2.53
2022-08-01T00:54:17.052Z,3.40
2022-08-01T00:56:44.432Z,4.03
2022-08-01T00:59:13.377Z,3.40
2022-08-01T01:01:46.853Z,3.50
2022-08-01T01:04:17.160Z,6.00
2022-08-01T01:06:55.106Z,4.07
2022-08-01T01:09:40.041Z,3.03
2022-08-01T01:12:18.870Z,4.03
2022-08-01T01:14:53.986Z,3.17
2022-08-01T01:17:31.197Z,3.37
2022-08-01T01:20:14.882Z,3.50
2022-08-01T01:22:54.679Z,3.67
2022-08-01T01:25:50.819Z,6.73
2022-08-01T01:28:23.946Z,4.60
2022-08-01T01:30:54.318Z,5.70
2022-08-01T01:33:23.456Z,4.00
2022-08-01T01:35:53.742Z,5.50
2022-08-01T01:38:24.993Z,4.20
2022-08-01T01:40:53.596Z,3.60
2022-08-01T01:43:22.398Z,7.00
2022-08-01T01:45:57.961Z,5.03
2022-08-01T01:48:25.720Z,3.90
2022-08-01T01:50:53.270Z,6.93
2022-08-01T01:53:23.489Z,4.20
2022-08-01T01:55:53.768Z,4.33
2022-08-01T01:58:21.640Z,3.70
2022-08-01T02:00:50.518Z,6.57
2022-08-01T02:03:19.971Z,4.23
2022-08-01T02:05:47.471Z,4.97
2022-08-01T02:08:16.738Z,4.93
2022-08-01T02:10:45.680Z,5.20
2022-08-01T02:13:12.530Z,4.00
2022-08-01T02:15:59.943Z,3.67
2022-08-01T02:18:27.803Z,4.90
2022-08-01T02:20:57.588Z,7.03
2022-08-01T02:23:28.244Z,4.33
2022-08-01T02:26:10.344Z,5.20
2022-08-01T02:28:44.357Z,6.07
2022-08-01T02:31:14.255Z,4.40
2022-08-01T02:33:46.188Z,5.17
2022-08-01T02:36:31.299Z,4.97
2022-08-01T02:39:04.302Z,4.43
2022-08-01T02:41:31.964Z,7.60
2022-08-01T02:44:02.918Z,4.40
2022-08-01T02:46:36.031Z,4.60
2022-08-01T02:49:08.621Z,5.23
2022-08-01T02:51:37.164Z,4.03
2022-08-01T02:54:06.326Z,5.10
2022-08-01T02:56:33.972Z,6.63
2022-08-01T02:59:01.612Z,4.93
2022-08-01T03:01:29.262Z,5.63
2022-08-01T03:03:58.978Z,6.00
2022-08-01T03:06:28.103Z,4.40
2022-08-01T03:08:56.309Z,9.63
2022-08-01T03:11:26.123Z,6.00
2022-08-01T03:13:54.457Z,6.07
2022-08-01T03:16:23.602Z,6.63
2022-08-01T03:18:52.730Z,5.73
2022-08-01T03:21:22.805Z,6.00
2022-08-01T03:23:55.032Z,5.80
2022-08-01T03:26:22.532Z,5.30
2022-08-01T03:28:51.209Z,5.60
2022-08-01T03:31:18.676Z,7.70
2022-08-01T03:33:45.523Z,6.20
2022-08-01T03:36:13.946Z,5.57
2022-08-01T03:38:43.149Z,5.63
2022-08-01T03:41:16.230Z,8.33
2022-08-01T03:43:52.918Z,4.43
2022-08-01T03:46:21.904Z,4.27
2022-08-01T03:48:55.980Z,6.80
2022-08-01T03:51:24.198Z,5.20
2022-08-01T03:53:52.347Z,4.00
2022-08-01T03:56:21.890Z,3.97
2022-08-01T03:58:49.937Z,5.57
2022-08-01T04:01:18.572Z,5.13
2022-08-01T04:03:45.943Z,5.63
2022-08-01T04:06:12.725Z,6.03
2022-08-01T04:08:41.196Z,4.83
2022-08-01T04:11:10.211Z,6.10
2022-08-01T04:13:38.667Z,5.83
2022-08-01T04:16:06.082Z,5.20
2022-08-01T04:18:32.918Z,5.53
2022-08-01T04:20:59.683Z,6.53
2022-08-01T04:23:28.459Z,7.43
2022-08-01T04:25:57.649Z,7.07
2022-08-01T04:28:25.306Z,9.03
2022-08-01T04:31:01.209Z,6.13
2022-08-01T04:33:31.005Z,6.40
2022-08-01T04:36:03.582Z,6.77
2022-08-01T04:38:34.893Z,6.83
2022-08-01T04:41:09.402Z,8.53
2022-08-01T04:43:37.294Z,9.00
2022-08-01T04:46:07.263Z,6.90
2022-08-01T04:48:38.124Z,5.77
2022-08-01T04:51:05.172Z,5.50
2022-08-01T04:53:31.955Z,8.90
2022-08-01T04:55:58.827Z,5.60
2022-08-01T04:58:25.700Z,6.00
2022-08-01T05:00:52.563Z,5.27
2022-08-01T05:03:20.842Z,5.47
2022-08-01T05:05:47.661Z,5.60
2022-08-01T05:08:14.445Z,5.90
2022-08-01T05:10:41.229Z,4.73
2022-08-01T05:13:08.010Z,4.83
2022-08-01T05:15:35.853Z,4.73
2022-08-01T05:18:02.619Z,4.97
2022-08-01T05:20:30.799Z,5.93
2022-08-01T05:22:57.794Z,6.90
2022-08-01T05:25:56.395Z,4.20
2022-08-01T05:28:11.596Z,3.77
2022-08-01T05:30:40.260Z,4.37
2022-08-01T05:33:07.100Z,5.20
2022-08-01T05:35:48.917Z,4.67
2022-08-01T05:38:16.280Z,5.10
2022-08-01T05:40:43.078Z,3.30
2022-08-01T05:43:09.864Z,2.03
2022-08-01T05:45:36.692Z,2.43
2022-08-01T05:48:03.752Z,2.97
2022-08-01T05:50:30.599Z,3.70
2022-08-01T05:52:58.721Z,5.57
2022-08-01T05:55:25.464Z,2.70
2022-08-01T05:57:52.245Z,2.40
2022-08-01T06:00:19.142Z,5.53
2022-08-01T06:02:46.227Z,4.13
2022-08-01T06:05:13.720Z,4.27
2022-08-01T06:07:41.160Z,3.67
2022-08-01T06:10:10.773Z,6.20
2022-08-01T06:12:42.547Z,2.30
2022-08-01T06:15:12.259Z,2.30
2022-08-01T06:17:39.039Z,2.80
2022-08-01T06:20:06.481Z,2.03
2022-08-01T06:22:33.351Z,1.83
2022-08-01T06:25:00.144Z,2.00
2022-08-01T06:27:28.328Z,2.90
2022-08-01T06:29:55.209Z,2.60
2022-08-01T06:32:26.884Z,2.40
2022-08-01T06:34:54.878Z,3.17
2022-08-01T06:37:21.669Z,2.03
2022-08-01T06:39:48.496Z,2.37
2022-08-01T06:42:15.345Z,2.00
2022-08-01T06:44:43.470Z,2.27
2022-08-01T06:47:10.259Z,3.03
2022-08-01T06:49:37.083Z,2.30
2022-08-01T06:52:04.844Z,2.63
2022-08-01T06:54:31.900Z,3.20
2022-08-01T06:56:58.956Z,4.53
2022-08-01T06:59:25.779Z,2.90
2022-08-01T07:01:53.979Z,2.80
2022-08-01T07:04:20.687Z,3.03
2022-08-01T07:06:47.472Z,3.50
2022-08-01T07:09:14.839Z,2.63
2022-08-01T07:11:42.339Z,3.00
2022-08-01T07:14:09.129Z,3.27
2022-08-01T07:16:36.060Z,2.73
2022-08-01T07:19:04.362Z,3.73
2022-08-01T07:21:39.914Z,3.70
2022-08-01T07:24:13.693Z,1.70
2022-08-01T07:26:53.923Z,3.50
2022-08-01T07:29:22.817Z,2.13
2022-08-01T07:31:49.614Z,4.93
2022-08-01T07:34:17.795Z,2.10
2022-08-01T07:36:44.633Z,8.80
2022-08-01T07:39:11.542Z,3.53
2022-08-01T07:41:53.278Z,4.60
2022-08-01T07:44:28.353Z,3.30
2022-08-01T07:46:56.424Z,3.83
2022-08-01T07:49:24.918Z,2.37
2022-08-01T07:52:04.191Z,2.17
2022-08-01T07:54:33.594Z,3.53
2022-08-01T07:57:01.132Z,2.30
2022-08-01T07:59:27.942Z,4.70
2022-08-01T08:01:54.766Z,2.87
2022-08-01T08:04:21.634Z,2.33
2022-08-01T08:06:49.817Z,2.23
2022-08-01T08:09:16.771Z,1.70
2022-08-01T08:11:47.198Z,4.03
2022-08-01T08:14:14.857Z,1.83
2022-08-01T08:16:41.640Z,1.83
2022-08-01T08:19:08.453Z,2.30
2022-08-01T08:21:35.410Z,2.63
2022-08-01T08:24:03.894Z,1.83
2022-08-01T08:26:30.917Z,2.43
2022-08-01T08:28:58.077Z,3.03
2022-08-01T08:31:51.296Z,2.23
2022-08-01T08:34:11.790Z,2.37
2022-08-01T08:36:39.059Z,2.30
2022-08-01T08:39:16.449Z,2.30
2022-08-01T08:41:46.475Z,2.00
2022-08-01T08:44:17.898Z,2.47
2022-08-01T08:46:47.389Z,2.23
2022-08-01T08:49:19.527Z,2.33
2022-08-01T08:51:49.954Z,3.93
2022-08-01T08:54:22.267Z,2.57
2022-08-01T08:56:59.119Z,5.83
2022-08-01T08:59:26.531Z,4.10
2022-08-01T09:01:53.619Z,3.10
2022-08-01T09:04:21.864Z,2.80
2022-08-01T09:06:52.919Z,2.00
2022-08-01T09:09:21.178Z,1.70
2022-08-01T09:11:56.951Z,5.03
2022-08-01T09:14:34.198Z,2.50
2022-08-01T09:17:02.938Z,1.60
2022-08-01T09:19:39.882Z,1.10
2022-08-01T09:22:11.979Z,1.57
2022-08-01T09:24:41.848Z,2.20
2022-08-01T09:27:21.914Z,1.10
2022-08-01T09:30:00.639Z,1.13
2022-08-01T09:32:34.333Z,1.17
2022-08-01T09:35:24.163Z,1.77
2022-08-01T09:38:16.349Z,1.30
2022-08-01T09:40:52.536Z,1.43
2022-08-01T09:43:20.090Z,4.00
2022-08-01T09:45:50.397Z,2.67
2022-08-01T09:48:17.846Z,1.30
2022-08-01T09:50:46.120Z,0.80
2022-08-01T09:53:27.157Z,0.87
2022-08-01T09:56:10.048Z,0.87
2022-08-01T09:58:57.899Z,0.80
2022-08-01T10:01:26.543Z,0.80
2022-08-01T10:04:12.448Z,1.77
2022-08-01T10:06:40.908Z,3.03
2022-08-01T10:09:08.410Z,3.83
2022-08-01T10:11:37.401Z,0.87
2022-08-01T10:14:06.818Z,1.07
2022-08-01T10:16:36.185Z,0.90
2022-08-01T10:19:06.068Z,1.10
2022-08-01T10:21:57.271Z,0.67
2022-08-01T10:24:26.781Z,1.47
2022-08-01T10:26:57.865Z,0.83
2022-08-01T10:29:45.573Z,0.60
2022-08-01T10:32:13.680Z,0.73
2022-08-01T10:34:40.615Z,0.90
2022-08-01T10:37:13.733Z,2.70
2022-08-01T10:39:41.100Z,2.03
2022-08-01T10:42:15.701Z,0.60
2022-08-01T10:44:43.262Z,0.80
2022-08-01T10:47:12.572Z,0.97
2022-08-01T10:49:46.271Z,0.93
2022-08-01T10:52:17.001Z,1.60
2022-08-01T10:54:52.353Z,0.80
2022-08-01T10:57:22.949Z,0.70
2022-08-01T11:00:01.062Z,1.43
2022-08-01T11:02:31.734Z,0.90
2022-08-01T11:05:02.728Z,1.83
2022-08-01T11:07:43.222Z,1.10
2022-08-01T11:10:17.670Z,1.07
2022-08-01T11:12:45.832Z,1.27
2022-08-01T11:15:29.490Z,0.70
2022-08-01T11:18:01.561Z,1.10
2022-08-01T11:20:30.288Z,1.03
2022-08-01T11:23:24.761Z,1.73
2022-08-01T11:26:14.372Z,1.90
2022-08-01T11:29:04.692Z,0.90
2022-08-01T11:31:37.168Z,4.37
2022-08-01T11:34:05.487Z,1.40
2022-08-01T11:36:57.655Z,1.27
2022-08-01T11:39:20.017Z,2.37
2022-08-01T11:41:49.991Z,1.13
2022-08-01T11:44:21.252Z,0.97
2022-08-01T11:47:00.355Z,1.23
2022-08-01T11:49:33.222Z,1.07
2022-08-01T11:52:02.797Z,1.03
2022-08-01T11:54:35.546Z,0.80
2022-08-01T11:57:05.611Z,0.80
2022-08-01T11:59:41.218Z,1.33
2022-08-01T12:02:30.515Z,1.53
2022-08-01T12:04:59.114Z,1.17
2022-08-01T12:07:27.992Z,0.60
2022-08-01T12:10:01.198Z,3.03
2022-08-01T12:12:29.068Z,1.10
2022-08-01T12:14:59.749Z,2.20
2022-08-01T12:17:32.044Z,1.40
2022-08-01T12:19:58.935Z,3.13
2022-08-01T12:22:25.824Z,0.93
2022-08-01T12:24:52.873Z,0.73
2022-08-01T12:27:27.599Z,3.17
2022-08-01T12:29:54.597Z,2.23
2022-08-01T12:32:32.733Z,1.10
2022-08-01T12:35:05.362Z,1.77
2022-08-01T12:37:33.006Z,1.10
2022-08-01T12:40:00.403Z,1.53
2022-08-01T12:42:28.091Z,2.23
2022-08-01T12:44:55.742Z,1.10
2022-08-01T12:47:24.195Z,1.20
2022-08-01T12:49:52.598Z,1.07
2022-08-01T12:52:19.767Z,0.80
2022-08-01T12:55:10.061Z,3.33
2022-08-01T12:57:38.586Z,1.10
2022-08-01T13:00:12.573Z,1.10
2022-08-01T13:02:40.205Z,3.27
2022-08-01T13:05:10.280Z,1.17
2022-08-01T13:07:45.391Z,0.80
2022-08-01T13:10:14.600Z,1.20
2022-08-01T13:12:51.602Z,0.80
2022-08-01T13:15:27.535Z,0.83
2022-08-01T13:17:55.468Z,2.10
2022-08-01T13:20:29.960Z,1.33
2022-08-01T13:23:10.378Z,1.00
2022-08-01T13:25:49.245Z,1.03
2022-08-01T13:28:16.816Z,2.17
2022-08-01T13:30:53.083Z,1.53
2022-08-01T13:33:19.983Z,2.27
2022-08-01T13:35:50.103Z,1.87
2022-08-01T13:38:16.872Z,2.50
2022-08-01T13:40:43.716Z,2.57
2022-08-01T13:43:10.555Z,1.27
2022-08-01T13:45:37.468Z,1.67
2022-08-01T13:48:12.763Z,1.10
2022-08-01T13:50:53.416Z,0.80
2022-08-01T13:53:30.193Z,1.00
2022-08-01T13:55:57.068Z,0.70
2022-08-01T13:58:24.179Z,1.67
2022-08-01T14:00:51.117Z,1.73
2022-08-01T14:03:17.939Z,3.63
2022-08-01T14:05:45.220Z,1.00
2022-08-01T14:08:12.031Z,0.80
2022-08-01T14:10:42.659Z,2.30
2022-08-01T14:13:10.471Z,1.70
2022-08-01T14:15:39.769Z,2.30
2022-08-01T14:18:07.733Z,2.17
2022-08-01T14:20:36.495Z,1.70
2022-08-01T14:23:03.422Z,6.37
2022-08-01T14:26:00.560Z,1.53
2022-08-01T14:28:18.559Z,1.40
2022-08-01T14:30:45.579Z,3.60
2022-08-01T14:33:13.338Z,1.93
2022-08-01T14:36:05.287Z,4.00
2022-08-01T14:38:31.495Z,1.30
2022-08-01T14:41:00.671Z,2.30
2022-08-01T14:43:33.287Z,1.33
2022-08-01T14:46:00.819Z,1.13
2022-08-01T14:48:27.719Z,1.20
2022-08-01T14:50:54.506Z,5.20
2022-08-01T14:53:21.452Z,3.20
2022-08-01T14:55:48.466Z,3.10
2022-08-01T14:58:15.345Z,0.90
2022-08-01T15:00:43.659Z,0.90
2022-08-01T15:03:10.419Z,1.83
2022-08-01T15:05:37.326Z,1.73
2022-08-01T15:08:04.767Z,1.43
2022-08-01T15:10:31.551Z,2.23
2022-08-01T15:12:58.325Z,2.73
2022-08-01T15:15:25.096Z,1.30
2022-08-01T15:17:53.532Z,1.27
2022-08-01T15:20:20.409Z,1.57
2022-08-01T15:22:47.410Z,3.73
2022-08-01T15:25:14.261Z,1.57
2022-08-01T15:27:41.183Z,2.70
2022-08-01T15:30:08.799Z,2.50
2022-08-01T15:32:35.694Z,1.67
2022-08-01T15:35:04.439Z,2.20
2022-08-01T15:37:31.130Z,3.50
2022-08-01T15:39:57.853Z,1.43
2022-08-01T15:42:25.582Z,3.67
2022-08-01T15:44:54.034Z,1.53
2022-08-01T15:47:20.836Z,1.87
2022-08-01T15:49:52.571Z,2.03
2022-08-01T15:52:22.387Z,2.13
2022-08-01T15:54:49.870Z,1.87
2022-08-01T15:57:16.689Z,2.20
2022-08-01T15:59:43.729Z,4.00
2022-08-01T16:02:11.200Z,1.80
2022-08-01T16:04:38.816Z,2.63
2022-08-01T16:07:06.600Z,1.33
2022-08-01T16:09:34.716Z,2.33
2022-08-01T16:12:01.419Z,1.77
2022-08-01T16:14:28.200Z,5.40
2022-08-01T16:16:54.923Z,1.90
2022-08-01T16:19:21.743Z,1.43
2022-08-01T16:21:48.557Z,1.63
2022-08-01T16:24:15.258Z,2.00
2022-08-01T16:26:43.396Z,1.10
2022-08-01T16:29:10.260Z,2.80
2022-08-01T16:31:57.975Z,3.83
2022-08-01T16:34:23.975Z,1.23
2022-08-01T16:36:50.816Z,3.50
2022-08-01T16:39:22.811Z,5.13
2022-08-01T16:41:55.094Z,6.07
2022-08-01T16:44:29.031Z,5.00
2022-08-01T16:47:01.644Z,3.40
2022-08-01T16:49:28.673Z,4.00
2022-08-01T16:51:55.495Z,2.13
2022-08-01T16:54:25.485Z,2.40
2022-08-01T16:56:54.179Z,3.20
2022-08-01T16:59:21.013Z,3.20
2022-08-01T17:02:00.298Z,3.03
2022-08-01T17:04:29.057Z,3.43
2022-08-01T17:06:55.907Z,2.03
2022-08-01T17:09:22.957Z,2.70
2022-08-01T17:11:49.953Z,1.60
2022-08-01T17:14:18.322Z,3.33
2022-08-01T17:16:45.166Z,1.80
2022-08-01T17:19:11.961Z,1.77
2022-08-01T17:21:41.622Z,2.23
2022-08-01T17:24:08.844Z,1.40
2022-08-01T17:26:35.786Z,5.03
2022-08-01T17:29:02.734Z,5.00
2022-08-01T17:31:31.143Z,1.53
2022-08-01T17:33:57.925Z,1.93
2022-08-01T17:36:24.749Z,7.17
2022-08-01T17:38:51.603Z,3.00
2022-08-01T17:41:18.408Z,4.10
2022-08-01T17:43:45.177Z,3.63
2022-08-01T17:46:11.999Z,2.83
2022-08-01T17:48:40.090Z,3.50
2022-08-01T17:51:06.860Z,2.90
2022-08-01T17:53:33.781Z,3.50
2022-08-01T17:56:00.599Z,3.40
2022-08-01T17:58:36.777Z,3.60
2022-08-01T18:01:17.042Z,3.20
2022-08-01T18:03:46.450Z,3.60
2022-08-01T18:06:15.701Z,3.43
2022-08-01T18:08:42.999Z,5.67
2022-08-01T18:11:10.003Z,3.73
2022-08-01T18:13:40.471Z,3.10
2022-08-01T18:16:08.374Z,2.20
2022-08-01T18:18:36.034Z,2.83
2022-08-01T18:21:05.055Z,7.67
2022-08-01T18:23:31.971Z,4.80
2022-08-01T18:25:59.055Z,5.13
2022-08-01T18:28:32.287Z,4.80
2022-08-01T18:31:02.167Z,4.27
2022-08-01T18:33:28.994Z,4.73
2022-08-01T18:36:01.631Z,4.73
2022-08-01T18:38:31.396Z,4.80
2022-08-01T18:40:58.204Z,3.23
2022-08-01T18:43:25.031Z,2.63
2022-08-01T18:45:51.819Z,5.83
2022-08-01T18:48:18.640Z,4.43
2022-08-01T18:50:45.443Z,3.77
2022-08-01T18:53:12.274Z,2.77
2022-08-01T18:55:40.504Z,5.93
2022-08-01T18:58:07.364Z,4.00
2022-08-01T19:00:34.230Z,4.50
2022-08-01T19:03:00.994Z,4.17
2022-08-01T19:05:27.771Z,3.43
2022-08-01T19:08:05.913Z,4.07
2022-08-01T19:10:34.373Z,3.03
2022-08-01T19:13:02.582Z,7.03
2022-08-01T19:15:29.362Z,6.80
2022-08-01T19:17:56.142Z,4.03
2022-08-01T19:20:23.074Z,3.10
2022-08-01T19:22:49.869Z,9.23
2022-08-01T19:25:16.700Z,7.67
2022-08-01T19:27:46.625Z,5.90
2022-08-01T19:30:16.213Z,5.80
2022-08-01T19:32:44.752Z,6.30
2022-08-01T19:35:13.750Z,8.70
2022-08-01T19:37:42.344Z,14.40
2022-08-01T19:40:09.802Z,6.37
2022-08-01T19:42:40.602Z,4.70
2022-08-01T19:45:08.145Z,5.97
2022-08-01T19:47:51.839Z,5.83
2022-08-01T19:50:24.254Z,13.43
2022-08-01T19:52:52.814Z,4.73
2022-08-01T19:55:20.591Z,6.33
2022-08-01T19:57:59.243Z,5.10
2022-08-01T20:00:36.818Z,3.47
2022-08-01T20:03:05.515Z,4.70
2022-08-01T20:05:32.640Z,6.40
2022-08-01T20:07:59.812Z,32.67
2022-08-01T20:10:26.753Z,50.27
2022-08-01T20:12:57.120Z,50.73
2022-08-01T20:15:24.663Z,46.30
2022-08-01T20:17:51.428Z,33.20
2022-08-01T20:20:19.692Z,16.30
2022-08-01T20:22:48.615Z,9.33
2022-08-01T20:25:18.651Z,9.03
2022-08-01T20:27:46.504Z,8.50
2022-08-01T20:30:13.662Z,18.07
2022-08-01T20:32:41.307Z,43.30
2022-08-01T20:35:09.370Z,29.80
2022-08-01T20:38:06.672Z,17.80
2022-08-01T20:40:26.951Z,11.70
2022-08-01T20:42:55.273Z,10.60
2022-08-01T20:45:23.589Z,6.87
2022-08-01T20:47:50.537Z,7.07
2022-08-01T20:50:52.302Z,5.10
2022-08-01T20:53:06.838Z,5.63
2022-08-01T20:55:44.402Z,8.33
2022-08-01T20:58:14.351Z,5.93
2022-08-01T21:00:43.992Z,6.53
2022-08-01T21:03:16.611Z,4.23
2022-08-01T21:05:55.438Z,5.53
2022-08-01T21:08:31.955Z,4.30
2022-08-01T21:11:03.035Z,12.30
2022-08-01T21:13:40.482Z,5.80
2022-08-01T21:16:23.954Z,5.33
2022-08-01T21:19:17.228Z,4.63
2022-08-01T21:21:48.254Z,5.77
2022-08-01T21:24:18.410Z,4.37
2022-08-01T21:26:46.544Z,4.07
2022-08-01T21:29:14.087Z,4.00
2022-08-01T21:31:41.946Z,11.43
2022-08-01T21:34:09.494Z,5.23
2022-08-01T21:36:36.940Z,9.20
2022-08-01T21:39:06.316Z,10.97
2022-08-01T21:41:56.111Z,4.33
2022-08-01T21:44:29.136Z,6.53
2022-08-01T21:46:58.430Z,5.80
2022-08-01T21:49:25.419Z,5.30
2022-08-01T21:51:57.448Z,8.27
2022-08-01T21:54:29.510Z,5.57
2022-08-01T21:57:07.036Z,8.70
2022-08-01T21:59:45.358Z,7.00
2022-08-01T22:02:17.632Z,9.50
2022-08-01T22:04:49.137Z,4.30
2022-08-01T22:07:18.068Z,9.67
2022-08-01T22:09:48.098Z,4.60
2022-08-01T22:12:18.771Z,11.83
2022-08-01T22:14:48.533Z,6.70
2022-08-01T22:17:20.124Z,5.90
2022-08-01T22:19:49.603Z,11.10
2022-08-01T22:23:26.680Z,4.33
2022-08-01T22:25:12.602Z,3.77
2022-08-01T22:28:06.627Z,5.93
2022-08-01T22:30:28.428Z,3.93
2022-08-01T22:33:15.281Z,6.00
2022-08-01T22:35:43.852Z,4.20
2022-08-01T22:38:10.827Z,4.00
2022-08-01T22:40:44.831Z,5.50
2022-08-01T22:43:23.348Z,4.80
2022-08-01T22:46:00.121Z,4.87
2022-08-01T22:48:34.913Z,6.57
2022-08-01T22:51:07.507Z,4.17
2022-08-01T22:53:43.224Z,6.17
2022-08-01T22:56:11.637Z,6.40
2022-08-01T22:58:44.074Z,7.80
2022-08-01T23:01:21.060Z,4.93
2022-08-01T23:03:50.970Z,5.43
2022-08-01T23:06:24.033Z,5.70
2022-08-01T23:08:54.172Z,5.23
2022-08-01T23:11:21.826Z,9.20
2022-08-01T23:13:52.157Z,6.10
2022-08-01T23:16:22.574Z,8.40
2022-08-01T23:18:50.567Z,3.47
2022-08-01T23:21:19.253Z,5.40
2022-08-01T23:23:48.380Z,4.83
2022-08-01T23:26:16.337Z,3.83
2022-08-01T23:28:44.267Z,8.00
2022-08-01T23:31:14.383Z,2.80
2022-08-01T23:33:42.587Z,7.10
2022-08-01T23:36:09.744Z,7.07
2022-08-01T23:38:36.973Z,9.77
2022-08-01T23:41:04.301Z,3.30
2022-08-01T23:43:31.302Z,4.73
2022-08-01T23:46:04.721Z,6.03
2022-08-01T23:48:34.979Z,8.13
2022-08-01T23:51:02.437Z,3.80
2022-08-01T23:53:30.730Z,4.57
2022-08-01T23:55:58.650Z,5.13
2022-08-01T23:58:26.022Z,4.23
